Time;durP1;ratioP1;P1;durP2;ratioP2;P2;SDS_P1;SDS_P2;PMS_P1;PMS_P2;Temp;Humidity;BMP_temperature;BMP_pressure;BME280_temperature;BME280_humidity;BME280_pressure;Samples;Min_cycle;Max_cycle;Signal;HPM_P1;HPM_P2
2021/08/16 00:02:12;;;;;;;0.43;0.40;;;21.50;58.20;;;;;;5084811;28;20024;-35
2021/08/16 00:04:38;;;;;;;0.30;0.30;;;21.50;58.00;;;;;;5085193;28;20051;-35
2021/08/16 00:07:04;;;;;;;0.40;0.40;;;21.50;58.00;;;;;;5080832;28;20040;-36
2021/08/16 00:09:30;;;;;;;0.40;0.40;;;21.50;58.70;;;;;;5084160;28;20063;-35
2021/08/16 00:11:56;;;;;;;0.43;0.43;;;21.50;58.20;;;;;;5084478;28;20029;-35
2021/08/16 00:14:22;;;;;;;0.40;0.40;;;21.50;58.10;;;;;;5084910;28;20024;-36
2021/08/16 00:16:48;;;;;;;0.40;0.40;;;21.50;58.30;;;;;;5084626;28;20059;-35
2021/08/16 00:19:15;;;;;;;0.40;0.40;;;21.40;58.30;;;;;;5084690;28;20031;-36
2021/08/16 00:21:41;;;;;;;0.32;0.32;;;21.40;58.40;;;;;;5084434;28;20084;-35
2021/08/16 00:24:07;;;;;;;1.48;0.40;;;21.40;58.40;;;;;;5084563;28;20184;-35
2021/08/16 00:26:33;;;;;;;0.30;0.30;;;21.40;58.00;;;;;;5084607;28;20029;-35
2021/08/16 00:29:00;;;;;;;0.40;0.40;;;21.40;58.20;;;;;;5066370;28;20037;-35
2021/08/16 00:31:29;;;;;;;0.40;0.40;;;21.30;58.10;;;;;;5084203;28;20029;-35
2021/08/16 00:33:56;;;;;;;0.40;0.40;;;21.30;58.90;;;;;;5084546;28;20028;-35
2021/08/16 00:36:22;;;;;;;0.60;0.47;;;21.30;58.70;;;;;;5071041;28;20779;-35
2021/08/16 00:38:48;;;;;;;0.30;0.30;;;21.30;59.40;;;;;;5064186;28;20037;-36
2021/08/16 00:41:16;;;;;;;0.47;0.40;;;21.30;59.20;;;;;;5049282;28;20021;-35
2021/08/16 00:43:42;;;;;;;;;;;21.30;59.00;;;;;;5066933;28;20075;-36
2021/08/16 00:46:08;;;;;;;0.38;0.38;;;21.40;59.30;;;;;;5084038;28;19909;-36
2021/08/16 00:48:34;;;;;;;0.40;0.40;;;21.40;59.10;;;;;;5066114;28;20048;-35
2021/08/16 00:51:00;;;;;;;0.40;0.40;;;21.40;59.20;;;;;;5083812;28;20025;-35
2021/08/16 00:53:28;;;;;;;0.40;0.40;;;21.40;59.70;;;;;;5083716;28;20432;-35
2021/08/16 00:55:55;;;;;;;0.50;0.50;;;21.50;60.00;;;;;;5084036;28;20017;-36
2021/08/16 00:58:21;;;;;;;0.40;0.40;;;21.50;60.00;;;;;;5049322;28;20021;-35
2021/08/16 01:00:48;;;;;;;0.40;0.40;;;21.50;59.80;;;;;;5065978;28;20028;-35
2021/08/16 01:03:14;;;;;;;0.50;0.50;;;21.60;60.20;;;;;;5065448;28;20033;-35
2021/08/16 01:05:40;;;;;;;0.50;0.50;;;21.60;60.70;;;;;;5076403;28;20036;-35
2021/08/16 01:08:06;;;;;;;0.40;0.40;;;21.60;60.80;;;;;;5072191;28;20036;-36
2021/08/16 01:10:34;;;;;;;0.50;0.50;;;21.60;60.70;;;;;;5083573;28;20363;-36
2021/08/16 01:13:00;;;;;;;;;;;21.70;60.90;;;;;;5066070;28;20028;-35
2021/08/16 01:15:28;;;;;;;0.40;0.40;;;21.70;61.00;;;;;;5083499;28;19908;-35
2021/08/16 01:17:55;;;;;;;0.30;0.30;;;21.70;61.10;;;;;;5083453;28;20063;-35
2021/08/16 01:20:21;;;;;;;0.63;0.55;;;21.70;61.10;;;;;;5068871;28;20055;-35
2021/08/16 01:22:47;;;;;;;0.40;0.40;;;21.70;61.20;;;;;;5076366;28;20043;-36
2021/08/16 01:25:14;;;;;;;0.50;0.50;;;21.80;61.50;;;;;;5083281;28;20020;-36
2021/08/16 01:27:40;;;;;;;0.50;0.50;;;21.80;61.50;;;;;;5083451;28;20037;-35
2021/08/16 01:30:08;;;;;;;0.40;0.40;;;21.80;61.50;;;;;;5083258;28;20020;-36
2021/08/16 01:32:34;;;;;;;0.55;0.40;;;21.80;61.70;;;;;;5082987;28;20036;-35
2021/08/16 01:35:00;;;;;;;0.90;0.43;;;21.80;61.70;;;;;;5082974;28;20477;-35
2021/08/16 01:37:26;;;;;;;0.30;0.30;;;21.90;61.90;;;;;;5083036;28;20064;-35
2021/08/16 01:39:52;;;;;;;0.40;0.40;;;21.90;62.40;;;;;;5083178;28;20788;-35
2021/08/16 01:42:19;;;;;;;0.60;0.50;;;21.90;62.50;;;;;;5070549;28;20119;-36
2021/08/16 01:44:45;;;;;;;0.30;0.30;;;21.90;62.30;;;;;;5045121;28;20028;-36
2021/08/16 01:47:12;;;;;;;0.63;0.50;;;21.90;62.30;;;;;;5062868;28;20056;-36
2021/08/16 01:49:40;;;;;;;0.40;0.40;;;22.00;62.60;;;;;;5062809;28;20067;-35
2021/08/16 01:52:06;;;;;;;0.40;0.40;;;22.00;62.50;;;;;;5070146;28;20021;-36
2021/08/16 01:54:33;;;;;;;0.67;0.53;;;22.00;62.30;;;;;;5082962;28;20127;-36
2021/08/16 01:56:59;;;;;;;;;;;22.00;62.40;;;;;;5083420;28;20025;-36
2021/08/16 01:59:25;;;;;;;0.50;0.50;;;22.00;62.30;;;;;;5082919;28;19916;-36
2021/08/16 02:01:52;;;;;;;0.63;0.50;;;22.10;62.40;;;;;;5066044;28;20021;-36
2021/08/16 02:04:18;;;;;;;0.50;0.50;;;22.10;62.30;;;;;;5062624;28;20021;-36
2021/08/16 02:06:44;;;;;;;0.55;0.50;;;22.10;62.20;;;;;;5078632;28;20150;-36
2021/08/16 02:09:10;;;;;;;0.77;0.55;;;22.10;62.30;;;;;;5082796;28;20040;-36
2021/08/16 02:11:36;;;;;;;0.77;0.63;;;22.10;62.30;;;;;;5076408;28;20029;-36
2021/08/16 02:14:02;;;;;;;0.60;0.60;;;22.20;62.40;;;;;;5062526;28;20043;-35
2021/08/16 02:16:28;;;;;;;0.70;0.55;;;22.20;62.40;;;;;;5062662;28;20130;-35
2021/08/16 02:18:54;;;;;;;0.32;0.32;;;22.20;62.60;;;;;;5062604;28;20025;-35
2021/08/16 02:21:21;;;;;;;0.60;0.60;;;22.20;62.70;;;;;;5063914;28;20021;-36
2021/08/16 02:23:47;;;;;;;0.52;0.52;;;22.20;62.60;;;;;;5082477;28;20024;-38
2021/08/16 02:26:13;;;;;;;0.50;0.50;;;22.20;62.50;;;;;;5082641;28;20837;-35
2021/08/16 02:28:39;;;;;;;0.70;0.60;;;22.30;62.70;;;;;;5082592;28;20044;-36
2021/08/16 02:31:05;;;;;;;0.70;0.68;;;22.30;62.70;;;;;;5082625;28;20054;-36
2021/08/16 02:33:31;;;;;;;1.00;0.70;;;22.30;62.70;;;;;;5086449;28;20035;-36
2021/08/16 02:35:57;;;;;;;0.50;0.50;;;22.30;62.60;;;;;;5086598;28;20035;-36
2021/08/16 02:38:24;;;;;;;0.47;0.47;;;22.30;62.50;;;;;;5086666;28;20447;-36
2021/08/16 02:40:50;;;;;;;0.50;0.50;;;22.30;62.40;;;;;;5086294;28;20024;-36
2021/08/16 02:43:16;;;;;;;0.60;0.60;;;22.30;62.30;;;;;;5066373;28;20025;-36
2021/08/16 02:45:42;;;;;;;0.70;0.70;;;22.40;62.40;;;;;;5066542;28;20074;-36
2021/08/16 02:48:09;;;;;;;0.68;0.60;;;22.40;62.30;;;;;;5065895;28;20056;-36
2021/08/16 02:50:35;;;;;;;0.50;0.50;;;22.40;62.20;;;;;;5066370;28;20033;-36
2021/08/16 02:53:01;;;;;;;0.63;0.63;;;22.40;62.30;;;;;;5081143;28;20813;-36
2021/08/16 02:55:28;;;;;;;0.50;0.50;;;22.40;62.20;;;;;;5085938;28;20068;-36
2021/08/16 02:57:54;;;;;;;0.60;0.60;;;22.40;62.20;;;;;;5086129;28;20043;-36
2021/08/16 03:00:20;;;;;;;0.50;0.50;;;22.40;62.30;;;;;;5086057;28;20153;-36
2021/08/16 03:02:46;;;;;;;0.52;0.52;;;22.40;62.40;;;;;;5086047;28;20031;-36
2021/08/16 03:05:12;;;;;;;0.50;0.50;;;22.50;62.30;;;;;;5085732;28;20035;-36
2021/08/16 03:07:39;;;;;;;0.70;0.70;;;22.40;62.20;;;;;;5085530;28;20051;-36
2021/08/16 03:10:11;;;;;;;0.40;0.40;;;22.50;62.50;;;;;;5085861;28;20044;-36
2021/08/16 03:12:37;;;;;;;0.80;0.60;;;22.50;62.40;;;;;;5053023;28;20049;-35
2021/08/16 03:15:05;;;;;;;0.70;0.63;;;22.50;62.40;;;;;;5065567;28;20028;-36
2021/08/16 03:17:31;;;;;;;0.52;0.52;;;22.50;62.30;;;;;;5067323;28;20052;-36
2021/08/16 03:19:57;;;;;;;0.90;0.63;;;22.50;62.20;;;;;;5065445;28;20058;-36
2021/08/16 03:22:23;;;;;;;0.57;0.57;;;22.50;62.30;;;;;;5075523;28;20137;-36
2021/08/16 03:24:50;;;;;;;0.52;0.52;;;22.50;62.20;;;;;;5085294;28;20054;-35
2021/08/16 03:27:16;;;;;;;0.85;0.60;;;22.50;62.10;;;;;;5085421;28;20487;-36
2021/08/16 03:29:42;;;;;;;0.70;0.70;;;22.50;62.90;;;;;;5085491;28;20401;-36
2021/08/16 03:32:09;;;;;;;0.63;0.63;;;22.60;62.20;;;;;;5085404;28;20058;-36
2021/08/16 03:34:35;;;;;;;0.60;0.40;;;22.50;62.10;;;;;;5085181;28;20084;-36
2021/08/16 03:37:02;;;;;;;0.57;0.57;;;22.60;62.20;;;;;;5085047;28;20033;-36
2021/08/16 03:39:28;;;;;;;0.70;0.70;;;22.60;62.30;;;;;;5085467;28;20043;-36
2021/08/16 03:41:54;;;;;;;0.65;0.63;;;22.60;62.30;;;;;;5076499;28;20025;-36
2021/08/16 03:44:20;;;;;;;0.65;0.60;;;22.60;62.30;;;;;;5063775;28;20029;-35
2021/08/16 03:46:46;;;;;;;0.60;0.60;;;22.60;62.20;;;;;;5064810;28;20061;-36
2021/08/16 03:49:12;;;;;;;0.60;0.60;;;22.60;62.30;;;;;;5064996;28;20060;-35
2021/08/16 03:51:39;;;;;;;0.60;0.60;;;22.70;62.40;;;;;;5068825;28;20047;-36
2021/08/16 03:54:05;;;;;;;0.50;0.50;;;22.60;62.30;;;;;;5084748;28;20075;-35
2021/08/16 03:56:31;;;;;;;0.40;0.40;;;22.60;62.30;;;;;;5084931;28;20028;-36
2021/08/16 03:58:57;;;;;;;0.77;0.60;;;22.60;62.90;;;;;;5081619;28;20052;-36
2021/08/16 04:01:23;;;;;;;0.60;0.60;;;22.60;62.10;;;;;;5084811;28;20028;-36
2021/08/16 04:03:49;;;;;;;1.05;0.60;;;22.70;62.10;;;;;;5084904;28;20036;-36
2021/08/16 04:06:16;;;;;;;0.65;0.65;;;22.60;61.90;;;;;;5084152;28;20020;-36
2021/08/16 04:08:43;;;;;;;0.52;0.52;;;22.70;62.00;;;;;;5084769;28;20056;-36
2021/08/16 04:11:11;;;;;;;0.50;0.50;;;22.70;62.00;;;;;;5082120;28;20025;-36
2021/08/16 04:13:37;;;;;;;0.60;0.60;;;22.70;62.00;;;;;;5064580;28;20036;-36
2021/08/16 04:16:04;;;;;;;0.65;0.65;;;22.70;62.10;;;;;;5064646;28;20077;-36
2021/08/16 04:18:30;;;;;;;0.50;0.50;;;22.70;62.00;;;;;;5064480;28;20087;-36
2021/08/16 04:20:57;;;;;;;0.52;0.52;;;22.70;62.10;;;;;;5064659;28;20060;-36
2021/08/16 04:23:23;;;;;;;0.70;0.60;;;22.70;62.10;;;;;;5064651;28;20037;-36
2021/08/16 04:25:49;;;;;;;0.50;0.50;;;22.70;62.10;;;;;;5083958;28;20644;-36
2021/08/16 04:28:15;;;;;;;0.60;0.60;;;22.70;62.10;;;;;;5084379;28;20040;-36
2021/08/16 04:30:41;;;;;;;0.60;0.60;;;22.70;62.20;;;;;;5084289;28;20017;-36
2021/08/16 04:33:08;;;;;;;0.60;0.60;;;22.70;62.20;;;;;;5084343;28;20040;-36
2021/08/16 04:35:34;;;;;;;0.70;0.70;;;22.80;62.30;;;;;;5083910;28;20051;-36
2021/08/16 04:38:00;;;;;;;0.80;0.80;;;22.80;62.30;;;;;;5083958;28;20017;-36
2021/08/16 04:40:26;;;;;;;1.00;0.57;;;22.70;62.10;;;;;;5084109;28;20036;-35
2021/08/16 04:42:52;;;;;;;0.70;0.70;;;22.70;62.00;;;;;;5067318;28;20028;-36
2021/08/16 04:45:18;;;;;;;1.08;0.47;;;22.70;62.00;;;;;;5063662;28;20131;-36
2021/08/16 04:47:45;;;;;;;0.60;0.60;;;22.70;61.90;;;;;;5063714;28;20057;-36
2021/08/16 04:50:12;;;;;;;0.77;0.70;;;22.70;61.90;;;;;;5064002;28;20021;-36
2021/08/16 04:52:38;;;;;;;0.70;0.60;;;22.80;61.90;;;;;;5075770;28;20122;-37
2021/08/16 04:55:05;;;;;;;0.45;0.45;;;22.80;61.90;;;;;;5083445;28;20029;-35
2021/08/16 04:57:35;;;;;;;0.60;0.60;;;22.80;62.00;;;;;;5083687;28;20044;-36
2021/08/16 05:00:05;;;;;;;0.60;0.60;;;22.80;61.90;;;;;;5083706;28;20040;-36
2021/08/16 05:02:31;;;;;;;0.70;0.70;;;22.80;62.00;;;;;;5065623;28;20080;-36
2021/08/16 05:07:53;;;;;;;0.60;0.60;;;22.80;62.10;;;;;;5065635;28;20059;-36
2021/08/16 05:10:23;;;;;;;0.60;0.60;;;22.80;62.10;;;;;;5083590;28;20033;-36
2021/08/16 05:12:50;;;;;;;0.68;0.68;;;22.80;62.10;;;;;;5067193;28;20055;-36
2021/08/16 05:15:16;;;;;;;0.60;0.60;;;22.80;62.10;;;;;;5067658;28;20058;-36
2021/08/16 05:17:43;;;;;;;0.60;0.50;;;22.80;62.10;;;;;;5083461;28;20054;-36
2021/08/16 05:20:09;;;;;;;0.60;0.60;;;22.80;62.00;;;;;;5082336;28;20058;-36
2021/08/16 05:22:37;;;;;;;0.60;0.60;;;22.80;61.90;;;;;;5069329;28;20484;-36
2021/08/16 05:25:05;;;;;;;0.90;0.60;;;22.80;61.90;;;;;;5062798;28;20043;-36
2021/08/16 05:27:31;;;;;;;0.57;0.57;;;22.80;61.90;;;;;;5063126;28;20090;-35
2021/08/16 05:29:57;;;;;;;0.65;0.65;;;22.80;61.90;;;;;;5063131;28;20056;-36
2021/08/16 05:32:23;;;;;;;1.17;0.70;;;22.80;61.90;;;;;;5063157;28;20031;-36
2021/08/16 05:34:49;;;;;;;0.70;0.70;;;22.80;61.90;;;;;;5063241;28;20551;-36
2021/08/16 05:37:15;;;;;;;0.50;0.50;;;22.80;61.80;;;;;;5082578;28;20036;-36
2021/08/16 05:39:42;;;;;;;0.55;0.50;;;22.80;61.90;;;;;;5082877;28;20032;-35
2021/08/16 05:42:08;;;;;;;0.70;0.70;;;22.90;61.90;;;;;;5072450;28;20029;-36
2021/08/16 05:44:34;;;;;;;0.60;0.60;;;22.90;62.00;;;;;;5062988;28;20731;-36
2021/08/16 05:47:05;;;;;;;0.63;0.63;;;22.80;61.90;;;;;;5062397;28;20044;-36
2021/08/16 05:49:31;;;;;;;0.60;0.60;;;22.80;62.00;;;;;;5062840;28;20811;-36
2021/08/16 05:51:58;;;;;;;0.50;0.50;;;22.80;61.90;;;;;;5068936;28;20036;-36
2021/08/16 05:54:24;;;;;;;0.70;0.70;;;22.80;61.90;;;;;;5082761;28;20081;-35
2021/08/16 05:56:50;;;;;;;0.43;0.43;;;22.80;61.90;;;;;;5082584;28;20103;-36
2021/08/16 05:59:16;;;;;;;0.50;0.50;;;22.80;61.90;;;;;;5082823;28;20037;-36
2021/08/16 06:01:43;;;;;;;0.50;0.50;;;22.90;62.00;;;;;;5075316;28;20032;-36
2021/08/16 06:04:09;;;;;;;0.70;0.60;;;22.90;62.00;;;;;;5062527;28;20037;-36
2021/08/16 06:06:36;;;;;;;0.68;0.68;;;22.90;62.00;;;;;;5076425;28;20025;-36
2021/08/16 06:09:02;;;;;;;0.70;0.70;;;22.90;61.90;;;;;;5082588;28;20040;-36
2021/08/16 06:11:29;;;;;;;0.50;0.50;;;22.90;61.90;;;;;;5082613;28;20024;-36
2021/08/16 06:13:55;;;;;;;0.80;0.80;;;22.90;61.90;;;;;;5082555;28;20032;-36
2021/08/16 06:16:21;;;;;;;0.40;0.40;;;22.90;61.90;;;;;;5082431;28;20473;-36
2021/08/16 06:18:47;;;;;;;0.70;0.70;;;22.90;61.90;;;;;;5082345;28;20058;-36
2021/08/16 06:21:13;;;;;;;0.70;0.70;;;22.90;61.90;;;;;;5082412;28;20035;-36
2021/08/16 06:23:39;;;;;;;0.70;0.65;;;22.90;61.90;;;;;;5082291;28;20040;-36
2021/08/16 06:26:07;;;;;;;0.85;0.85;;;22.90;61.90;;;;;;5082386;28;20024;-36
2021/08/16 06:28:34;;;;;;;0.70;0.70;;;22.90;61.90;;;;;;5082406;28;20040;-36
2021/08/16 06:31:00;;;;;;;0.52;0.52;;;22.90;62.00;;;;;;5082453;28;20473;-36
2021/08/16 06:33:26;;;;;;;0.60;0.60;;;22.90;62.00;;;;;;5082290;28;20028;-36
2021/08/16 06:35:53;;;;;;;1.00;0.60;;;22.90;61.90;;;;;;5073408;28;20053;-36
2021/08/16 06:38:26;;;;;;;0.60;0.60;;;22.90;61.90;;;;;;5061849;28;20063;-36
2021/08/16 06:40:56;;;;;;;0.60;0.50;;;22.90;61.90;;;;;;5062309;28;20054;-36
2021/08/16 06:43:23;;;;;;;0.90;0.60;;;22.90;61.90;;;;;;5082220;28;20036;-36
2021/08/16 06:45:49;;;;;;;0.95;0.68;;;22.90;61.90;;;;;;5082372;28;20035;-36
2021/08/16 06:48:16;;;;;;;0.75;0.75;;;22.90;61.90;;;;;;5081762;28;20053;-36
2021/08/16 06:50:42;;;;;;;0.57;0.57;;;22.90;61.80;;;;;;5082113;28;20025;-36
2021/08/16 06:53:11;;;;;;;0.50;0.50;;;22.90;61.80;;;;;;5082034;28;20384;-36
2021/08/16 06:55:37;;;;;;;2.30;0.68;;;22.90;61.90;;;;;;5082038;28;20477;-36
2021/08/16 06:58:04;;;;;;;0.50;0.50;;;22.90;61.90;;;;;;5082088;28;20028;-36
2021/08/16 07:00:30;;;;;;;0.70;0.70;;;22.90;61.90;;;;;;5082144;28;20024;-36
2021/08/16 07:02:58;;;;;;;0.60;0.60;;;22.90;61.90;;;;;;5064036;28;20044;-36
2021/08/16 07:05:24;;;;;;;0.75;0.60;;;22.90;61.90;;;;;;5077072;28;20033;-36
2021/08/16 07:07:53;;;;;;;0.63;0.63;;;22.90;61.90;;;;;;5061533;28;20079;-35
2021/08/16 07:10:22;;;;;;;0.70;0.60;;;22.90;61.90;;;;;;5062062;28;20029;-36
2021/08/16 07:12:48;;;;;;;0.60;0.60;;;23.00;62.00;;;;;;5078230;28;20051;-36
2021/08/16 07:15:14;;;;;;;1.30;0.55;;;23.00;61.90;;;;;;5081929;28;20032;-36
2021/08/16 07:17:40;;;;;;;0.87;0.80;;;22.90;61.80;;;;;;5081192;28;20025;-35
2021/08/16 07:20:09;;;;;;;0.50;0.50;;;23.00;61.90;;;;;;5065546;28;20304;-35
2021/08/16 07:22:36;;;;;;;0.60;0.60;;;22.90;61.90;;;;;;5077037;28;20040;-36
2021/08/16 07:25:02;;;;;;;0.68;0.68;;;22.90;61.90;;;;;;5085698;28;20035;-36
2021/08/16 07:27:28;;;;;;;0.60;0.60;;;22.90;61.90;;;;;;5085114;28;20036;-36
2021/08/16 07:29:54;;;;;;;1.38;0.50;;;22.90;61.90;;;;;;5085392;28;20028;-35
2021/08/16 07:32:21;;;;;;;0.80;0.63;;;23.00;62.00;;;;;;5070132;28;20093;-36
2021/08/16 07:34:47;;;;;;;0.75;0.70;;;23.00;62.00;;;;;;5065214;28;20040;-36
2021/08/16 07:37:14;;;;;;;0.57;0.55;;;22.90;61.90;;;;;;5085032;28;20029;-36
2021/08/16 07:39:40;;;;;;;0.65;0.65;;;23.00;61.90;;;;;;5085354;28;20078;-36
2021/08/16 07:42:06;;;;;;;0.70;0.70;;;23.00;61.90;;;;;;5056846;28;20059;-36
2021/08/16 07:44:33;;;;;;;0.70;0.70;;;22.90;61.90;;;;;;5065250;28;20650;-36
2021/08/16 07:47:00;;;;;;;0.70;0.70;;;23.00;62.00;;;;;;5064705;28;20059;-36
2021/08/16 07:49:26;;;;;;;;;;;23.00;62.00;;;;;;5065567;28;20086;-36
2021/08/16 07:51:52;;;;;;;0.70;0.70;;;23.00;62.10;;;;;;5070567;28;19930;-36
2021/08/16 07:54:18;;;;;;;0.55;0.55;;;23.00;62.00;;;;;;5074516;28;20048;-37
2021/08/16 07:56:49;;;;;;;0.88;0.70;;;23.00;62.00;;;;;;5064934;28;20100;-37
2021/08/16 07:59:18;;;;;;;0.60;0.60;;;23.00;62.10;;;;;;5064431;28;20033;-36
2021/08/16 08:01:45;;;;;;;0.70;0.70;;;23.00;62.10;;;;;;5064680;28;20108;-36
2021/08/16 08:04:11;;;;;;;0.50;0.50;;;23.00;62.10;;;;;;5064932;28;20029;-36
2021/08/16 08:06:38;;;;;;;0.60;0.60;;;23.00;62.90;;;;;;5079814;28;21102;-36
2021/08/16 08:09:04;;;;;;;0.60;0.60;;;23.00;62.10;;;;;;5084375;28;20123;-36
2021/08/16 08:11:31;;;;;;;0.70;0.70;;;23.00;61.90;;;;;;5066519;28;20031;-36
2021/08/16 08:13:57;;;;;;;1.02;0.68;;;23.00;62.10;;;;;;5084763;28;20074;-36
2021/08/16 08:16:23;;;;;;;1.63;0.50;;;23.00;60.90;;;;;;5084491;28;20017;-36
2021/08/16 08:18:49;;;;;;;0.63;0.55;;;22.90;60.80;;;;;;5084514;28;20028;-36
2021/08/16 08:21:16;;;;;;;0.60;0.60;;;22.90;61.00;;;;;;5084566;28;20020;-35
2021/08/16 08:23:42;;;;;;;1.73;0.70;;;23.00;61.50;;;;;;5084445;28;20032;-36
2021/08/16 08:26:08;;;;;;;0.60;0.60;;;22.90;61.70;;;;;;5084331;28;20060;-36
2021/08/16 08:28:35;;;;;;;0.60;0.60;;;22.90;61.80;;;;;;5084129;28;20837;-36
2021/08/16 08:31:01;;;;;;;0.70;0.70;;;22.90;61.90;;;;;;5083556;28;20043;-35
2021/08/16 08:33:27;;;;;;;0.77;0.70;;;22.90;61.90;;;;;;5084376;28;20024;-36
2021/08/16 08:35:53;;;;;;;0.68;0.68;;;22.90;61.90;;;;;;5075339;28;20036;-36
2021/08/16 08:38:19;;;;;;;0.60;0.60;;;22.90;61.80;;;;;;5063760;28;20051;-35
2021/08/16 08:40:45;;;;;;;0.60;0.60;;;22.90;61.70;;;;;;5064266;28;20052;-36
2021/08/16 08:43:13;;;;;;;0.60;0.60;;;22.90;61.70;;;;;;5083703;28;20112;-36
2021/08/16 08:45:40;;;;;;;0.90;0.50;;;22.90;61.70;;;;;;5083971;28;20020;-36
2021/08/16 08:48:06;;;;;;;0.57;0.57;;;22.90;62.40;;;;;;5083521;28;20813;-35
2021/08/16 08:50:33;;;;;;;0.57;0.57;;;22.90;61.70;;;;;;5083961;28;20058;-36
2021/08/16 08:53:00;;;;;;;0.60;0.60;;;22.90;61.70;;;;;;5083951;28;20025;-36
2021/08/16 08:55:26;;;;;;;0.70;0.60;;;22.90;61.70;;;;;;5083957;28;20112;-36
2021/08/16 08:57:52;;;;;;;0.47;0.47;;;22.90;61.70;;;;;;5083854;28;20021;-36
2021/08/16 09:00:19;;;;;;;0.63;0.60;;;22.90;61.70;;;;;;5083621;28;20110;-37
2021/08/16 09:02:58;;;;;;;0.70;0.70;;;22.90;61.70;;;;;;5083710;28;20020;-36
2021/08/16 09:05:24;;;;;;;0.60;0.60;;;22.90;61.70;;;;;;5078722;28;20029;-36
2021/08/16 09:07:50;;;;;;;0.70;0.60;;;22.90;61.80;;;;;;5063708;28;20436;-39
2021/08/16 09:10:17;;;;;;;0.60;0.60;;;22.90;61.80;;;;;;5063596;28;20846;-36
2021/08/16 09:12:44;;;;;;;0.50;0.50;;;22.90;61.90;;;;;;5061026;28;20058;-36
2021/08/16 09:15:15;;;;;;;0.60;0.60;;;22.90;61.90;;;;;;5083653;28;20069;-35
2021/08/16 09:17:42;;;;;;;0.60;0.45;;;22.90;61.90;;;;;;5080988;28;20135;-36
2021/08/16 09:20:22;;;;;;;0.60;0.60;;;22.90;61.90;;;;;;5083444;28;20385;-36
2021/08/16 09:22:58;;;;;;;0.60;0.60;;;22.90;62.00;;;;;;5069809;28;20033;-36
2021/08/16 09:25:26;;;;;;;0.60;0.60;;;22.90;62.00;;;;;;5063496;28;20021;-36
2021/08/16 09:27:51;;;;;;;;;;;22.90;62.00;;;;;;5045604;28;20048;-36
2021/08/16 09:30:28;;;;;;;0.70;0.70;;;23.00;62.10;;;;;;5063395;28;19908;-36
2021/08/16 09:32:55;;;;;;;0.60;0.60;;;22.90;62.80;;;;;;5045472;28;20269;-36
2021/08/16 09:35:21;;;;;;;0.55;0.55;;;22.90;62.00;;;;;;5067780;28;20040;-36
2021/08/16 09:37:54;;;;;;;0.47;0.47;;;22.90;62.00;;;;;;5048376;28;20024;-35
2021/08/16 09:40:20;;;;;;;0.60;0.60;;;22.90;62.00;;;;;;5082756;28;20020;-36
2021/08/16 09:42:51;;;;;;;1.05;0.70;;;22.90;62.00;;;;;;5082422;28;20024;-36
2021/08/16 09:45:33;;;;;;;0.50;0.50;;;22.90;62.00;;;;;;5065202;28;20032;-36
2021/08/16 09:48:00;;;;;;;0.60;0.60;;;22.90;62.00;;;;;;5082767;28;20060;-36
2021/08/16 09:50:44;;;;;;;0.68;0.68;;;22.90;62.00;;;;;;5082659;28;20506;-36
2021/08/16 09:53:11;;;;;;;0.77;0.70;;;23.00;62.20;;;;;;5082930;28;20029;-36
2021/08/16 09:55:42;;;;;;;1.40;0.65;;;23.00;62.20;;;;;;5082898;28;20866;-36
2021/08/16 09:58:09;;;;;;;0.70;0.70;;;23.00;62.30;;;;;;5079150;28;20071;-36
2021/08/16 10:00:36;;;;;;;;;;;23.00;62.30;;;;;;5083136;28;20028;-36
2021/08/16 10:03:02;;;;;;;0.90;0.65;;;23.00;62.40;;;;;;5082858;28;19971;-36
2021/08/16 10:05:28;;;;;;;0.60;0.60;;;23.00;62.40;;;;;;5064692;28;20033;-36
2021/08/16 10:07:55;;;;;;;0.60;0.60;;;23.00;62.40;;;;;;5082506;28;20044;-36
2021/08/16 10:10:21;;;;;;;0.50;0.50;;;23.00;62.40;;;;;;5064718;28;20020;-36
2021/08/16 10:12:47;;;;;;;0.50;0.50;;;23.00;62.40;;;;;;5032204;28;20067;-36
2021/08/16 10:15:13;;;;;;;0.80;0.60;;;23.00;62.40;;;;;;5044967;28;20091;-36
2021/08/16 10:17:40;;;;;;;0.73;0.60;;;23.00;62.50;;;;;;5044676;28;20024;-36
2021/08/16 10:20:06;;;;;;;0.73;0.73;;;23.00;62.00;;;;;;5044498;28;20059;-36
2021/08/16 10:22:37;;;;;;;0.82;0.80;;;23.00;61.40;;;;;;5056026;28;20029;-36
2021/08/16 10:25:14;;;;;;;0.65;0.57;;;22.90;60.90;;;;;;5081979;28;20493;-35
2021/08/16 10:27:41;;;;;;;0.77;0.70;;;23.00;61.70;;;;;;5082489;28;20043;-36
2021/08/16 10:30:15;;;;;;;0.77;0.77;;;22.90;60.90;;;;;;5082604;28;20028;-36
2021/08/16 10:32:41;;;;;;;1.23;0.80;;;22.90;61.00;;;;;;5082595;28;20036;-36
2021/08/16 10:35:11;;;;;;;0.52;0.52;;;22.90;61.10;;;;;;5082570;28;20025;-36
2021/08/16 10:37:38;;;;;;;0.70;0.70;;;22.90;61.50;;;;;;5064516;28;20028;-36
2021/08/16 10:40:25;;;;;;;1.52;0.65;;;22.90;61.80;;;;;;5082300;28;20818;-36
2021/08/16 10:42:55;;;;;;;0.73;0.70;;;22.90;61.90;;;;;;5065603;28;20067;-36
2021/08/16 10:45:33;;;;;;;0.68;0.68;;;22.90;62.00;;;;;;5062376;28;20025;-36
2021/08/16 10:48:04;;;;;;;0.75;0.73;;;23.00;62.10;;;;;;5044711;28;20147;-36
2021/08/16 10:50:30;;;;;;;1.25;0.77;;;22.90;62.10;;;;;;5062380;28;20028;-36
2021/08/16 10:53:02;;;;;;;0.93;0.80;;;22.90;62.20;;;;;;5078066;28;20036;-36
2021/08/16 10:55:31;;;;;;;0.60;0.60;;;22.90;62.20;;;;;;5086248;28;20056;-36
2021/08/16 10:57:57;;;;;;;0.63;0.55;;;22.90;62.20;;;;;;5086188;28;20028;-36
2021/08/16 11:00:23;;;;;;;1.20;0.55;;;22.90;62.20;;;;;;5086026;28;20063;-36
2021/08/16 11:02:56;;;;;;;0.60;0.60;;;22.90;62.20;;;;;;5086349;28;20029;-36
2021/08/16 11:05:35;;;;;;;0.90;0.57;;;22.90;62.20;;;;;;5085903;28;20631;-36
2021/08/16 11:08:03;;;;;;;1.05;0.80;;;23.00;62.30;;;;;;5085946;28;20048;-36
2021/08/16 11:10:42;;;;;;;;;;;22.90;62.20;;;;;;5068420;28;20028;-36
2021/08/16 11:13:19;;;;;;;1.23;0.85;;;22.90;62.20;;;;;;5067024;28;19909;-36
2021/08/16 11:15:46;;;;;;;0.52;0.52;;;22.90;62.20;;;;;;5065878;28;20021;-36
2021/08/16 11:18:19;;;;;;;0.52;0.52;;;22.90;62.20;;;;;;5065952;28;20051;-36
2021/08/16 11:20:47;;;;;;;0.93;0.63;;;23.00;62.30;;;;;;5065637;28;20025;-36
2021/08/16 11:23:20;;;;;;;0.75;0.60;;;22.90;62.30;;;;;;5051307;28;20016;-36
2021/08/16 11:25:51;;;;;;;1.00;0.70;;;22.90;62.40;;;;;;5065354;28;20059;-36
2021/08/16 11:28:19;;;;;;;0.70;0.70;;;23.00;62.50;;;;;;5065626;28;20048;-36
2021/08/16 11:30:46;;;;;;;0.63;0.60;;;22.90;62.50;;;;;;5065325;28;20025;-36
2021/08/16 11:33:20;;;;;;;1.10;0.80;;;23.00;62.60;;;;;;5065860;28;20461;-36
2021/08/16 11:35:47;;;;;;;0.60;0.60;;;23.00;62.60;;;;;;5073673;28;20040;-36
2021/08/16 11:38:16;;;;;;;0.82;0.70;;;23.00;62.60;;;;;;5085338;28;20020;-36
2021/08/16 11:40:42;;;;;;;0.90;0.60;;;23.00;62.60;;;;;;5085527;28;20112;-36
2021/08/16 11:43:08;;;;;;;0.90;0.70;;;23.00;62.60;;;;;;5050823;28;20067;-36
2021/08/16 11:45:37;;;;;;;0.70;0.70;;;23.00;62.60;;;;;;5085451;28;20040;-36
2021/08/16 11:48:04;;;;;;;0.77;0.50;;;23.00;62.50;;;;;;5067209;28;20051;-36
2021/08/16 11:50:30;;;;;;;0.68;0.60;;;23.00;62.50;;;;;;5084950;28;20021;-36
2021/08/16 11:52:57;;;;;;;0.68;0.68;;;23.00;62.50;;;;;;5085104;28;20032;-37
2021/08/16 11:55:30;;;;;;;0.68;0.63;;;23.00;62.50;;;;;;5084988;28;20032;-36
2021/08/16 11:57:56;;;;;;;0.60;0.60;;;23.00;62.50;;;;;;5084797;28;20032;-36
2021/08/16 12:00:27;;;;;;;0.80;0.70;;;23.00;62.50;;;;;;5084823;28;20072;-36
2021/08/16 12:02:57;;;;;;;0.82;0.70;;;23.00;62.50;;;;;;5067017;28;20056;-36
2021/08/16 12:05:24;;;;;;;0.60;0.60;;;23.00;62.50;;;;;;5050630;28;20088;-36
2021/08/16 12:07:50;;;;;;;1.35;0.80;;;23.00;62.60;;;;;;5050074;28;20083;-36
2021/08/16 12:10:18;;;;;;;0.70;0.70;;;23.00;62.70;;;;;;5084898;28;20032;-35
2021/08/16 12:12:44;;;;;;;0.90;0.65;;;23.00;62.70;;;;;;5068829;28;20115;-36
2021/08/16 12:15:17;;;;;;;1.15;0.90;;;23.00;62.70;;;;;;5046890;28;20047;-35
2021/08/16 12:17:43;;;;;;;0.70;0.70;;;23.00;62.60;;;;;;5064696;28;20029;-36
2021/08/16 12:20:14;;;;;;;0.70;0.70;;;23.00;62.40;;;;;;5064621;28;20031;-36
2021/08/16 12:22:53;;;;;;;0.75;0.70;;;23.00;61.90;;;;;;5076578;28;20106;-36
2021/08/16 12:25:23;;;;;;;0.90;0.80;;;23.00;61.30;;;;;;5084248;28;20128;-36
2021/08/16 12:28:00;;;;;;;1.10;0.85;;;23.00;61.20;;;;;;5084398;28;20051;-36
2021/08/16 12:30:33;;;;;;;0.60;0.60;;;22.90;61.10;;;;;;5066249;28;20044;-35
2021/08/16 12:33:09;;;;;;;0.98;0.90;;;22.90;61.20;;;;;;5084128;28;20043;-36
2021/08/16 12:35:35;;;;;;;0.98;0.63;;;22.90;61.30;;;;;;5077894;28;20365;-36
2021/08/16 12:38:01;;;;;;;1.02;0.68;;;22.90;61.50;;;;;;5064114;28;20029;-36
2021/08/16 12:40:27;;;;;;;0.70;0.60;;;22.90;61.60;;;;;;5064253;28;20031;-36
2021/08/16 12:42:55;;;;;;;1.13;0.85;;;22.90;61.70;;;;;;5080721;28;20024;-35
2021/08/16 12:45:21;;;;;;;0.93;0.75;;;22.90;61.90;;;;;;5084137;28;20028;-36
2021/08/16 12:47:57;;;;;;;1.02;0.80;;;22.90;62.00;;;;;;5083707;28;20044;-36
2021/08/16 12:50:24;;;;;;;0.70;0.60;;;22.90;62.10;;;;;;5083882;28;20017;-36
2021/08/16 12:52:50;;;;;;;0.60;0.60;;;22.90;62.30;;;;;;5083564;28;20028;-36